Time;durP1;ratioP1;P1;durP2;ratioP2;P2;SDS_P1;SDS_P2;PMS_P1;PMS_P2;Temp;Humidity;BMP_temperature;BMP_pressure;BME280_temperature;BME280_humidity;BME280_pressure;Samples;Min_cycle;Max_cycle;Signal;HPM_P1;HPM_P2
2022/07/24 00:00:33;;;;;;;9.20;8.90;;;19.40;99.90;;;;;;5023621;28;20255;-85
2022/07/24 00:03:00;;;;;;;9.50;9.20;;;19.30;99.90;;;;;;5023836;28;20318;-84
2022/07/24 00:05:30;;;;;;;9.35;9.05;;;19.30;99.90;;;;;;5023387;28;20319;-85
2022/07/24 00:07:58;;;;;;;9.35;9.05;;;19.30;99.90;;;;;;5023086;28;20243;-85
2022/07/24 00:10:28;;;;;;;9.50;9.20;;;19.30;99.90;;;;;;5023946;28;20235;-85
2022/07/24 00:12:58;;;;;;;9.40;9.10;;;19.20;99.90;;;;;;5023986;28;20266;-84
2022/07/24 00:15:27;;;;;;;9.23;8.93;;;19.20;99.90;;;;;;5023782;28;20330;-85
2022/07/24 00:18:05;;;;;;;9.40;9.10;;;19.20;99.90;;;;;;5024052;28;20259;-84
2022/07/24 00:20:34;;;;;;;9.30;9.00;;;19.10;99.90;;;;;;5023870;28;20272;-84
2022/07/24 00:23:04;;;;;;;9.30;9.00;;;19.10;99.90;;;;;;5025954;28;20239;-84
2022/07/24 00:25:33;;;;;;;9.30;9.00;;;19.10;99.90;;;;;;5031319;28;20231;-85
2022/07/24 00:28:03;;;;;;;9.40;9.10;;;19.00;99.90;;;;;;5029034;28;20305;-85
2022/07/24 00:30:32;;;;;;;9.35;9.05;;;18.90;99.90;;;;;;5026990;28;20236;-85
2022/07/24 00:33:11;;;;;;;9.38;9.07;;;18.90;99.90;;;;;;5028926;28;20311;-84
2022/07/24 00:35:40;;;;;;;9.40;9.10;;;18.90;99.90;;;;;;5030160;28;20292;-84
2022/07/24 00:38:10;;;;;;;9.50;9.20;;;18.80;99.90;;;;;;5030691;28;20262;-85
2022/07/24 00:40:40;;;;;;;9.30;9.00;;;18.80;99.90;;;;;;5028981;28;20232;-83
2022/07/24 00:43:09;;;;;;;9.30;9.00;;;18.80;99.90;;;;;;5026335;28;20294;-84
2022/07/24 00:45:38;;;;;;;9.38;9.07;;;18.80;99.90;;;;;;5025578;28;20320;-85
2022/07/24 00:48:18;;;;;;;9.30;9.00;;;18.80;99.90;;;;;;5025681;28;20239;-84
2022/07/24 00:50:46;;;;;;;9.40;9.10;;;18.80;99.90;;;;;;5027111;28;20240;-84
2022/07/24 00:53:15;;;;;;;9.60;9.30;;;18.80;99.90;;;;;;5024940;28;20251;-84
2022/07/24 00:55:45;;;;;;;9.30;9.00;;;18.80;99.90;;;;;;5024651;28;20259;-85
2022/07/24 00:58:14;;;;;;;9.20;8.90;;;18.80;99.90;;;;;;5024768;28;20228;-84
2022/07/24 01:00:43;;;;;;;9.43;9.13;;;18.80;99.90;;;;;;5024345;28;20315;-84
2022/07/24 01:06:00;;;;;;;9.35;9.05;;;18.80;99.90;;;;;;5022502;28;20227;-84
2022/07/24 01:08:29;;;;;;;9.40;9.10;;;18.80;99.90;;;;;;5024489;28;20224;-84
2022/07/24 01:10:58;;;;;;;9.30;9.00;;;18.80;99.90;;;;;;5024335;28;20251;-84
2022/07/24 01:13:28;;;;;;;9.23;8.93;;;18.80;99.90;;;;;;5023572;28;20233;-84
2022/07/24 01:15:59;;;;;;;9.30;9.00;;;18.80;99.90;;;;;;5024452;28;20716;-85
2022/07/24 01:18:37;;;;;;;9.30;9.00;;;18.80;99.90;;;;;;5024432;28;20664;-84
2022/07/24 01:21:15;;;;;;;9.50;9.20;;;18.80;99.90;;;;;;5024577;28;20259;-84
2022/07/24 01:23:45;;;;;;;9.20;8.90;;;18.80;99.90;;;;;;5023531;28;20235;-84
2022/07/24 01:26:14;;;;;;;9.30;9.00;;;18.70;99.90;;;;;;5023087;28;20261;-84
2022/07/24 01:28:44;;;;;;;9.30;9.00;;;18.70;99.90;;;;;;5023100;28;20236;-84
2022/07/24 01:31:13;;;;;;;9.20;8.90;;;18.70;99.90;;;;;;5023052;28;20296;-84
2022/07/24 01:33:42;;;;;;;9.07;8.77;;;18.70;99.90;;;;;;5023841;28;20228;-84
2022/07/24 01:36:21;;;;;;;9.02;8.73;;;18.70;99.90;;;;;;5030018;28;20216;-84
2022/07/24 01:38:50;;;;;;;9.30;9.00;;;18.70;99.90;;;;;;5031090;28;20236;-84
2022/07/24 01:41:19;;;;;;;9.20;8.90;;;18.70;99.90;;;;;;5027500;28;20228;-85
2022/07/24 01:43:49;;;;;;;8.95;8.68;;;18.70;99.90;;;;;;5025223;28;20267;-85
2022/07/24 01:46:18;;;;;;;9.10;8.80;;;18.60;99.90;;;;;;5024076;28;20233;-84
2022/07/24 01:48:48;;;;;;;9.07;8.77;;;18.70;99.90;;;;;;5027596;28;20694;-84
2022/07/24 01:51:29;;;;;;;9.10;8.80;;;18.60;99.90;;;;;;5026420;28;20336;-84
2022/07/24 01:53:57;;;;;;;9.02;8.75;;;18.60;99.90;;;;;;5026173;28;20264;-84
2022/07/24 01:56:25;;;;;;;9.00;8.70;;;18.60;99.90;;;;;;5026937;28;20315;-84
2022/07/24 01:58:54;;;;;;;9.10;8.80;;;18.60;99.90;;;;;;5026776;28;20239;-84
2022/07/24 02:01:24;;;;;;;8.88;8.68;;;18.60;99.90;;;;;;5026323;28;20239;-84
2022/07/24 02:03:53;;;;;;;8.73;8.52;;;18.60;99.90;;;;;;5025988;28;20294;-84
2022/07/24 02:06:35;;;;;;;9.10;8.80;;;18.60;99.90;;;;;;5026370;28;20243;-84
2022/07/24 02:09:03;;;;;;;8.70;8.50;;;18.60;99.90;;;;;;5026223;28;20235;-84
2022/07/24 02:11:31;;;;;;;9.10;8.80;;;18.50;99.90;;;;;;5026535;28;20263;-84
2022/07/24 02:14:00;;;;;;;9.20;8.90;;;18.60;99.90;;;;;;5026364;28;20271;-84
2022/07/24 02:16:29;;;;;;;9.02;8.73;;;18.50;99.90;;;;;;5025363;28;20236;-84
2022/07/24 02:18:59;;;;;;;9.30;9.00;;;18.50;99.90;;;;;;5025630;28;20237;-84
2022/07/24 02:24:15;;;;;;;9.15;8.85;;;18.50;99.90;;;;;;5024595;28;20243;-84
2022/07/24 02:26:45;;;;;;;9.20;8.90;;;18.50;99.90;;;;;;5025229;28;20243;-84
2022/07/24 02:29:14;;;;;;;9.18;8.88;;;18.50;99.90;;;;;;5026089;28;20331;-84
2022/07/24 02:31:44;;;;;;;9.20;8.90;;;18.50;99.90;;;;;;5028796;28;20236;-84
2022/07/24 02:34:13;;;;;;;9.20;8.90;;;18.50;99.90;;;;;;5026651;28;20323;-84
2022/07/24 02:39:30;;;;;;;9.00;8.70;;;18.40;99.90;;;;;;5023703;28;20235;-83
2022/07/24 02:41:59;;;;;;;9.20;8.90;;;18.40;99.90;;;;;;5033826;28;20259;-83
2022/07/24 02:44:28;;;;;;;9.27;8.98;;;18.40;99.90;;;;;;5029955;28;20299;-85
2022/07/24 02:46:58;;;;;;;9.30;9.00;;;18.30;99.90;;;;;;5026690;28;20263;-84
2022/07/24 02:49:27;;;;;;;9.02;8.73;;;18.30;99.90;;;;;;5026034;28;20347;-84
2022/07/24 02:54:44;;;;;;;9.30;9.00;;;18.10;99.90;;;;;;5025254;28;20228;-84
2022/07/24 02:57:13;;;;;;;9.40;9.10;;;18.00;99.90;;;;;;5024332;28;20227;-83
2022/07/24 02:59:44;;;;;;;9.10;8.80;;;18.10;99.90;;;;;;5024981;28;20271;-84
2022/07/24 03:02:12;;;;;;;9.10;8.80;;;18.10;99.90;;;;;;5024490;28;20236;-84
2022/07/24 03:04:41;;;;;;;9.40;9.10;;;18.10;99.90;;;;;;5024629;28;20243;-84
2022/07/24 03:07:21;;;;;;;9.40;9.10;;;18.10;99.90;;;;;;5023977;28;20307;-84
2022/07/24 03:09:49;;;;;;;9.23;8.93;;;18.10;99.90;;;;;;5025094;28;20231;-84
2022/07/24 03:12:18;;;;;;;9.45;9.15;;;18.00;99.90;;;;;;5024514;28;20271;-84
2022/07/24 03:14:48;;;;;;;9.45;9.15;;;18.00;99.90;;;;;;5024511;28;20240;-84
2022/07/24 03:17:20;;;;;;;9.40;9.10;;;18.00;99.90;;;;;;5024020;28;20228;-83
2022/07/24 03:19:48;;;;;;;9.40;9.10;;;18.00;99.90;;;;;;5025276;28;20263;-83
2022/07/24 03:22:27;;;;;;;9.70;9.40;;;17.90;99.90;;;;;;5024562;28;20287;-84
2022/07/24 03:24:56;;;;;;;9.70;9.40;;;17.80;99.90;;;;;;5024690;28;20266;-84
2022/07/24 03:27:26;;;;;;;9.60;9.30;;;17.80;99.90;;;;;;5024668;28;20259;-84
2022/07/24 03:29:55;;;;;;;9.63;9.32;;;17.80;99.90;;;;;;5024792;28;20243;-83
2022/07/24 03:32:25;;;;;;;9.60;9.30;;;17.80;99.90;;;;;;5024891;28;20718;-84
2022/07/24 03:34:54;;;;;;;9.60;9.30;;;17.80;99.90;;;;;;5024437;28;20228;-84
2022/07/24 03:37:27;;;;;;;9.80;9.50;;;17.70;99.90;;;;;;5025433;28;20245;-84
2022/07/24 03:39:55;;;;;;;9.60;9.30;;;17.70;99.90;;;;;;5024695;28;20294;-84
2022/07/24 03:42:22;;;;;;;9.60;9.30;;;17.70;99.90;;;;;;5024355;28;20244;-83
2022/07/24 03:44:52;;;;;;;9.50;9.20;;;17.70;99.90;;;;;;5024373;28;20251;-84
2022/07/24 03:47:21;;;;;;;9.50;9.20;;;17.70;99.90;;;;;;5024697;28;20383;-84
2022/07/24 03:49:51;;;;;;;9.60;9.30;;;17.60;99.90;;;;;;5024952;28;20264;-83
2022/07/24 03:52:20;;;;;;;9.30;9.00;;;17.70;99.90;;;;;;5025758;28;20264;-84
2022/07/24 03:57:37;;;;;;;9.57;9.27;;;17.70;99.90;;;;;;5021980;28;20231;-84
2022/07/24 04:00:07;;;;;;;9.40;9.10;;;17.60;99.90;;;;;;5024946;28;20236;-83
2022/07/24 04:02:34;;;;;;;9.20;8.90;;;17.60;99.90;;;;;;5024829;28;20266;-84
2022/07/24 04:05:08;;;;;;;9.30;9.00;;;17.70;99.90;;;;;;5025084;28;20239;-85
2022/07/24 04:07:36;;;;;;;9.10;8.80;;;17.60;99.90;;;;;;5024563;28;20222;-85
2022/07/24 04:10:13;;;;;;;9.20;8.90;;;17.60;99.90;;;;;;5024751;28;20287;-84
2022/07/24 04:12:42;;;;;;;9.20;8.90;;;17.60;99.90;;;;;;5031060;28;20239;-84
2022/07/24 04:15:12;;;;;;;9.38;9.07;;;17.60;99.90;;;;;;5027651;28;20232;-84
2022/07/24 04:17:41;;;;;;;9.20;8.90;;;17.60;99.90;;;;;;5026570;28;20232;-84
2022/07/24 04:20:11;;;;;;;9.15;8.85;;;17.60;99.90;;;;;;5026437;28;20294;-84
2022/07/24 04:22:40;;;;;;;9.30;9.00;;;17.70;99.90;;;;;;5025823;28;20336;-84
2022/07/24 04:25:12;;;;;;;9.23;8.93;;;17.60;99.90;;;;;;5025429;28;20301;-84
2022/07/24 04:27:40;;;;;;;9.20;8.90;;;17.60;99.90;;;;;;5025398;28;20287;-83
2022/07/24 04:30:09;;;;;;;9.10;8.80;;;17.60;99.90;;;;;;5025498;28;20274;-84
2022/07/24 04:35:06;;;;;;;9.30;9.00;;;17.60;99.90;;;;;;5097970;22;20270;-81
2022/07/24 04:37:34;;;;;;;9.20;8.90;;;17.60;99.90;;;;;;5074103;28;20230;-82
2022/07/24 04:40:02;;;;;;;9.30;9.00;;;17.70;99.90;;;;;;5081537;28;20324;-81
2022/07/24 04:42:30;;;;;;;9.10;8.80;;;17.70;99.90;;;;;;5077571;28;20227;-81
2022/07/24 04:44:58;;;;;;;9.10;8.80;;;17.80;99.90;;;;;;5041719;28;20306;-81
2022/07/24 04:47:25;;;;;;;9.00;8.70;;;17.90;99.90;;;;;;5041215;28;20224;-82
2022/07/24 04:49:53;;;;;;;9.23;8.93;;;18.00;99.90;;;;;;5041033;28;20235;-81
2022/07/24 04:52:20;;;;;;;9.07;8.77;;;18.10;99.90;;;;;;5042413;28;20326;-83
2022/07/24 04:54:48;;;;;;;9.30;9.00;;;18.20;99.90;;;;;;5042235;28;20301;-83
2022/07/24 04:57:16;;;;;;;9.20;8.90;;;18.30;99.90;;;;;;5047568;28;20231;-82
2022/07/24 04:59:44;;;;;;;9.13;8.82;;;18.40;99.90;;;;;;5061740;28;20285;-82
2022/07/24 05:02:12;;;;;;;9.10;8.80;;;18.50;99.90;;;;;;5061677;28;20253;-79
2022/07/24 05:04:40;;;;;;;9.13;8.82;;;18.50;99.90;;;;;;5062055;28;20239;-79
2022/07/24 05:07:07;;;;;;;9.13;8.82;;;18.60;99.90;;;;;;5061951;28;20225;-80
2022/07/24 05:09:35;;;;;;;9.00;8.70;;;18.70;99.90;;;;;;5062111;28;20285;-79
2022/07/24 05:12:02;;;;;;;9.07;8.77;;;18.70;99.90;;;;;;5061739;28;20251;-80
2022/07/24 05:14:30;;;;;;;9.38;9.07;;;18.80;99.90;;;;;;5060971;28;20227;-79
2022/07/24 05:16:59;;;;;;;9.30;9.00;;;18.80;99.90;;;;;;5061456;28;20245;-80
2022/07/24 05:19:27;;;;;;;9.35;9.05;;;18.90;99.90;;;;;;5053770;28;20801;-79
2022/07/24 05:21:54;;;;;;;9.20;8.90;;;19.00;99.90;;;;;;5062860;28;20263;-80
2022/07/24 05:24:22;;;;;;;9.25;8.95;;;19.10;99.90;;;;;;5064721;28;20297;-79
2022/07/24 05:26:49;;;;;;;9.50;9.20;;;19.20;99.90;;;;;;5064533;28;20314;-81
2022/07/24 05:29:17;;;;;;;9.18;8.88;;;19.30;99.90;;;;;;5064690;28;20685;-81
2022/07/24 05:31:44;;;;;;;9.13;8.82;;;19.40;99.90;;;;;;5067852;28;20230;-81
2022/07/24 05:34:14;;;;;;;9.32;9.02;;;19.50;99.90;;;;;;5073836;28;20297;-81
2022/07/24 05:36:41;;;;;;;9.30;9.00;;;19.60;99.90;;;;;;5075472;28;20313;-81
2022/07/24 05:39:09;;;;;;;9.30;9.00;;;19.70;99.90;;;;;;5065782;28;20261;-82
2022/07/24 05:41:37;;;;;;;9.40;9.10;;;19.70;99.90;;;;;;5064314;28;20329;-81
2022/07/24 05:44:05;;;;;;;9.45;9.15;;;19.80;99.90;;;;;;5064175;28;20245;-81
2022/07/24 05:46:32;;;;;;;9.30;9.00;;;19.90;99.90;;;;;;5064371;28;20251;-81
2022/07/24 05:49:00;;;;;;;9.30;9.00;;;20.10;99.90;;;;;;5063574;28;20290;-81
2022/07/24 05:51:29;;;;;;;9.30;9.00;;;20.20;99.90;;;;;;5056653;28;20230;-82
2022/07/24 05:53:57;;;;;;;9.43;9.13;;;20.30;99.90;;;;;;5067734;28;20234;-81
2022/07/24 05:56:24;;;;;;;9.40;9.10;;;20.60;99.90;;;;;;5066574;28;20329;-81
2022/07/24 05:58:51;;;;;;;9.50;9.20;;;20.70;99.90;;;;;;5067493;28;20298;-81
2022/07/24 06:01:19;;;;;;;9.68;9.38;;;20.90;99.90;;;;;;5067387;28;20298;-82
2022/07/24 06:03:46;;;;;;;9.48;9.18;;;21.00;99.90;;;;;;5070214;28;20302;-82
2022/07/24 06:06:14;;;;;;;9.50;9.20;;;21.10;99.90;;;;;;5070782;28;20238;-81
2022/07/24 06:08:45;;;;;;;9.68;9.38;;;21.30;99.90;;;;;;5071202;28;20254;-81
2022/07/24 06:11:12;;;;;;;9.50;9.20;;;21.40;99.90;;;;;;5070566;28;20257;-84
2022/07/24 06:13:40;;;;;;;9.55;9.25;;;21.50;99.90;;;;;;5068235;28;20248;-81
2022/07/24 06:16:08;;;;;;;9.70;9.40;;;21.60;99.90;;;;;;5065829;28;20253;-81
2022/07/24 06:18:35;;;;;;;9.60;9.30;;;21.80;99.90;;;;;;5062923;28;20728;-83
2022/07/24 06:21:03;;;;;;;10.10;9.80;;;22.00;99.90;;;;;;5060164;28;20415;-83
2022/07/24 06:23:32;;;;;;;9.73;9.43;;;22.10;99.90;;;;;;5062030;28;20222;-88
2022/07/24 06:26:01;;;;;;;9.70;9.40;;;22.30;99.90;;;;;;5060629;28;20306;-87
2022/07/24 06:28:29;;;;;;;9.90;9.60;;;22.50;99.90;;;;;;5060890;28;20227;-87
2022/07/24 06:30:57;;;;;;;9.63;9.32;;;22.60;99.90;;;;;;5069361;28;20285;-87
2022/07/24 06:33:25;;;;;;;9.63;9.32;;;22.80;99.90;;;;;;5060229;28;20238;-86
2022/07/24 06:35:52;;;;;;;9.90;9.60;;;22.90;99.90;;;;;;5059766;28;20233;-85
2022/07/24 06:38:23;;;;;;;9.60;9.30;;;23.00;99.90;;;;;;5061324;28;20265;-86
2022/07/24 06:40:52;;;;;;;9.30;9.00;;;23.10;99.90;;;;;;5062694;28;20284;-87
2022/07/24 06:43:24;;;;;;;9.30;9.00;;;23.20;99.90;;;;;;5066500;28;20257;-88
2022/07/24 06:45:51;;;;;;;9.70;9.40;;;23.20;99.90;;;;;;5066925;28;20230;-89
2022/07/24 06:48:21;;;;;;;9.55;9.25;;;23.20;99.90;;;;;;5065909;28;20226;-87
2022/07/24 06:50:49;;;;;;;9.55;9.25;;;23.20;99.90;;;;;;5061739;28;20254;-88
2022/07/24 06:53:17;;;;;;;9.52;9.23;;;23.30;99.90;;;;;;5061380;28;20262;-86
2022/07/24 06:55:44;;;;;;;9.60;9.30;;;23.50;99.90;;;;;;5061072;28;20234;-86
2022/07/24 06:58:15;;;;;;;9.80;9.50;;;23.50;99.90;;;;;;5060712;28;20289;-87
2022/07/24 07:00:47;;;;;;;9.70;9.40;;;23.50;99.90;;;;;;5062033;28;20265;-87
2022/07/24 07:03:19;;;;;;;9.68;9.38;;;23.50;99.90;;;;;;5062688;28;20385;-88
2022/07/24 07:05:47;;;;;;;9.77;9.48;;;23.50;99.90;;;;;;5061261;28;20338;-86
2022/07/24 07:08:15;;;;;;;9.68;9.38;;;23.40;99.90;;;;;;5062181;28;20227;-87
2022/07/24 07:10:44;;;;;;;10.00;9.70;;;23.50;99.90;;;;;;5062509;28;20234;-88
2022/07/24 07:13:14;;;;;;;10.07;9.77;;;23.50;99.90;;;;;;5060986;28;20243;-87
2022/07/24 07:15:48;;;;;;;10.35;10.05;;;23.60;99.90;;;;;;5060777;28;20231;-88
2022/07/24 07:18:19;;;;;;;10.02;9.73;;;23.70;99.90;;;;;;5061295;28;20219;-87
2022/07/24 07:20:47;;;;;;;9.95;9.65;;;23.90;99.90;;;;;;5060562;28;20230;-86
2022/07/24 07:23:15;;;;;;;10.32;10.02;;;24.00;99.90;;;;;;5060560;28;20230;-87
2022/07/24 07:25:43;;;;;;;10.32;10.02;;;24.00;99.90;;;;;;5061138;28;20222;-87
2022/07/24 07:28:20;;;;;;;10.15;9.85;;;24.20;99.90;;;;;;5054313;28;20231;-88
2022/07/24 07:30:54;;;;;;;10.50;10.20;;;24.30;99.90;;;;;;5039895;28;20222;-88
2022/07/24 07:33:22;;;;;;;10.57;10.27;;;24.50;99.90;;;;;;5040798;28;20319;-87
2022/07/24 07:36:16;;;;;;;10.52;10.23;;;24.60;99.90;;;;;;5040270;28;20223;-89
2022/07/24 07:38:45;;;;;;;10.40;10.10;;;24.80;99.90;;;;;;5041571;28;20223;-87
2022/07/24 07:41:15;;;;;;;10.50;10.20;;;25.10;99.90;;;;;;5043300;28;20243;-88
2022/07/24 07:54:27;;;;;;;10.35;10.05;;;25.80;99.90;;;;;;5632614;22;20234;-88
2022/07/24 07:56:56;;;;;;;10.25;9.95;;;25.80;99.90;;;;;;5478729;22;20250;-88
2022/07/24 07:59:25;;;;;;;10.18;9.88;;;25.70;99.90;;;;;;5289851;22;20270;-87
2022/07/24 08:01:57;;;;;;;10.18;9.88;;;25.70;99.90;;;;;;5076588;28;20246;-87
2022/07/24 08:04:26;;;;;;;9.80;9.50;;;25.70;99.90;;;;;;5069392;28;20235;-88
2022/07/24 08:07:02;;;;;;;10.10;9.80;;;25.70;99.90;;;;;;5063462;28;20277;-87
2022/07/24 08:09:37;;;;;;;10.23;9.93;;;25.70;99.90;;;;;;5062288;28;20226;-85
2022/07/24 08:15:50;;;;;;;10.55;10.25;;;25.60;99.90;;;;;;4942410;28;20222;-90
2022/07/24 08:18:18;;;;;;;10.50;10.20;;;25.80;99.90;;;;;;5059735;28;20253;-83
2022/07/24 08:20:45;;;;;;;10.30;10.00;;;25.90;99.90;;;;;;5060436;28;20235;-83
2022/07/24 08:23:16;;;;;;;10.20;9.90;;;26.00;99.90;;;;;;5060179;28;20238;-83
2022/07/24 08:25:45;;;;;;;10.20;9.90;;;26.00;99.90;;;;;;5060165;28;20258;-83
2022/07/24 08:28:13;;;;;;;9.95;9.65;;;26.20;99.90;;;;;;5061091;28;20223;-83
2022/07/24 08:30:41;;;;;;;10.00;9.70;;;26.50;99.90;;;;;;5062305;28;20230;-83
2022/07/24 08:33:08;;;;;;;10.38;10.07;;;26.50;99.90;;;;;;5061163;28;20237;-83
2022/07/24 08:35:36;;;;;;;10.32;10.02;;;26.60;99.90;;;;;;5060999;28;20322;-83
2022/07/24 08:38:05;;;;;;;10.23;9.93;;;26.90;99.90;;;;;;5061751;28;20265;-83
2022/07/24 08:40:36;;;;;;;10.32;10.02;;;27.10;99.90;;;;;;5062143;28;20231;-84
2022/07/24 08:43:07;;;;;;;10.30;10.00;;;27.40;99.90;;;;;;5060154;28;20250;-84
2022/07/24 08:45:38;;;;;;;10.38;10.07;;;27.60;99.90;;;;;;5059763;28;20238;-83
2022/07/24 08:48:08;;;;;;;10.40;10.10;;;27.90;99.90;;;;;;5061072;28;20223;-83
2022/07/24 08:50:40;;;;;;;10.20;9.90;;;28.00;99.90;;;;;;5060492;28;20234;-84
2022/07/24 08:53:10;;;;;;;10.25;9.95;;;28.00;99.90;;;;;;5059722;28;20235;-83
2022/07/24 08:55:40;;;;;;;10.43;10.13;;;28.20;99.90;;;;;;5059219;28;20247;-85
2022/07/24 08:58:09;;;;;;;10.60;10.30;;;28.40;99.90;;;;;;5062823;28;20223;-84
2022/07/24 09:00:37;;;;;;;10.48;10.18;;;28.50;99.90;;;;;;5063086;28;20241;-85
2022/07/24 09:03:04;;;;;;;10.90;10.60;;;29.00;99.90;;;;;;5062101;28;20261;-85
2022/07/24 09:05:35;;;;;;;10.60;10.30;;;29.20;99.90;;;;;;5063034;28;20269;-86
2022/07/24 09:08:11;;;;;;;10.60;10.30;;;29.40;99.90;;;;;;5062050;28;20222;-86
2022/07/24 09:10:39;;;;;;;10.68;10.38;;;29.60;99.90;;;;;;5060994;28;20234;-86
2022/07/24 09:13:16;;;;;;;10.60;10.30;;;29.80;99.90;;;;;;5063058;28;20321;-85
2022/07/24 09:15:47;;;;;;;10.90;10.60;;;29.70;99.90;;;;;;5061946;28;20429;-85
2022/07/24 09:18:30;;;;;;;10.57;10.27;;;29.60;99.90;;;;;;5064584;28;20318;-84
2022/07/24 09:21:12;;;;;;;10.57;10.27;;;29.80;99.90;;;;;;5062839;28;20280;-85
2022/07/24 09:23:40;;;;;;;10.70;10.40;;;29.90;99.90;;;;;;5070038;28;20234;-84
2022/07/24 09:26:08;;;;;;;10.38;10.07;;;30.10;99.90;;;;;;5067319;28;20287;-84
2022/07/24 09:28:50;;;;;;;10.30;10.00;;;30.10;99.90;;;;;;5062048;28;20212;-84
2022/07/24 09:31:18;;;;;;;10.20;9.90;;;30.40;99.90;;;;;;5062224;28;20292;-84
2022/07/24 09:33:46;;;;;;;10.45;10.15;;;30.70;99.90;;;;;;5062942;28;20231;-84
2022/07/24 09:36:16;;;;;;;10.63;10.32;;;30.70;99.90;;;;;;5062572;28;20212;-84
2022/07/24 09:38:50;;;;;;;10.45;10.15;;;30.50;99.90;;;;;;5063045;28;20200;-84
2022/07/24 09:41:23;;;;;;;10.63;10.32;;;31.00;99.90;;;;;;5062836;28;20226;-85
2022/07/24 09:44:04;;;;;;;10.52;10.23;;;31.20;99.90;;;;;;5075144;28;20214;-83
2022/07/24 09:46:32;;;;;;;10.60;10.30;;;31.00;99.90;;;;;;5082460;28;20215;-83
2022/07/24 09:49:01;;;;;;;10.30;10.00;;;30.80;99.90;;;;;;5082757;28;20237;-83
2022/07/24 09:51:30;;;;;;;10.40;10.10;;;30.90;99.90;;;;;;5082535;28;20215;-81
2022/07/24 09:54:00;;;;;;;10.57;10.27;;;31.20;99.90;;;;;;5081841;28;20230;-82
2022/07/24 09:56:28;;;;;;;10.60;10.30;;;31.80;99.90;;;;;;5074486;28;20325;-82
2022/07/24 09:58:59;;;;;;;10.52;10.23;;;32.10;99.90;;;;;;5064866;28;20239;-83
2022/07/24 10:01:29;;;;;;;10.70;10.40;;;32.20;99.90;;;;;;5058143;28;20231;-83
2022/07/24 10:03:58;;;;;;;10.88;10.57;;;32.20;99.90;;;;;;5065274;28;20333;-83
2022/07/24 10:06:27;;;;;;;10.65;10.35;;;32.20;99.90;;;;;;5064420;28;20305;-82
2022/07/24 10:08:57;;;;;;;10.68;10.38;;;32.40;99.90;;;;;;5064133;28;20227;-83
2022/07/24 10:11:25;;;;;;;10.68;10.38;;;32.60;99.90;;;;;;5065871;28;20259;-82
2022/07/24 10:13:53;;;;;;;10.60;10.30;;;32.90;99.90;;;;;;5059961;28;20262;-83
2022/07/24 10:16:31;;;;;;;10.55;10.25;;;33.00;99.90;;;;;;5058593;28;20247;-83
2022/07/24 10:19:00;;;;;;;10.32;10.02;;;33.20;99.90;;;;;;5049302;28;20215;-82
2022/07/24 10:21:32;;;;;;;10.40;10.10;;;33.30;99.90;;;;;;5053256;28;20235;-81
2022/07/24 10:24:37;;;;;;;10.48;10.18;;;33.30;99.90;;;;;;5057233;28;20275;-81
2022/07/24 10:27:06;;;;;;;10.60;10.30;;;33.40;99.90;;;;;;5033232;28;20258;-82
2022/07/24 10:29:36;;;;;;;10.80;10.50;;;33.80;99.90;;;;;;5049197;28;20231;-81
2022/07/24 10:32:06;;;;;;;10.52;10.23;;;33.90;99.90;;;;;;5049730;28;20231;-81
2022/07/24 10:57:11;;;;;;;10.30;10.00;;;32.90;99.90;;;;;;5064594;28;20210;-89
2022/07/24 11:29:58;;;;;;;;;;;;;;;;;;;;;
2022/07/24 11:33:26;;;;;;;10.77;10.48;;;33.80;99.90;;;;;;4878655;28;20388;-87
2022/07/24 11:40:00;;;;;;;10.80;10.50;;;33.00;99.90;;;;;;5039521;28;20226;-87
2022/07/24 11:43:08;;;;;;;10.73;10.43;;;32.70;99.90;;;;;;5059294;28;20238;-87
2022/07/24 11:56:26;;;;;;;11.15;10.85;;;32.10;99.90;;;;;;5002303;28;20411;-85
2022/07/24 11:59:01;;;;;;;10.55;10.25;;;32.30;99.90;;;;;;5058913;28;20242;-86
2022/07/24 12:01:30;;;;;;;10.50;10.20;;;32.20;99.90;;;;;;5059427;28;20222;-85
2022/07/24 12:04:01;;;;;;;10.40;10.10;;;32.00;99.90;;;;;;5059154;28;20326;-85
2022/07/24 12:06:38;;;;;;;10.63;10.32;;;31.70;99.90;;;;;;5059396;28;20237;-85
2022/07/24 12:09:08;;;;;;;10.40;10.10;;;31.40;99.90;;;;;;5059884;28;20242;-86
2022/07/24 12:12:25;;;;;;;10.50;10.20;;;31.40;99.90;;;;;;5062806;28;20222;-84
2022/07/24 12:15:11;;;;;;;10.50;10.20;;;31.70;99.90;;;;;;5073009;28;20226;-85
2022/07/24 12:18:17;;;;;;;10.60;10.30;;;31.80;99.90;;;;;;5060983;28;20241;-87
2022/07/24 12:24:06;;;;;;;10.60;10.30;;;33.10;99.90;;;;;;5031475;28;20290;-85
2022/07/24 12:26:51;;;;;;;10.35;10.05;;;34.00;99.90;;;;;;5039967;28;20262;-87
2022/07/24 12:29:21;;;;;;;10.55;10.25;;;34.30;99.90;;;;;;5039470;28;20262;-88
2022/07/24 12:32:00;;;;;;;10.52;10.23;;;34.10;99.90;;;;;;5038545;28;20228;-87
2022/07/24 12:34:48;;;;;;;10.40;10.10;;;34.80;99.90;;;;;;5037835;28;20231;-86
2022/07/24 12:37:16;;;;;;;10.40;10.10;;;35.40;99.90;;;;;;5039827;28;20250;-87
2022/07/24 12:39:48;;;;;;;10.50;10.20;;;35.90;99.90;;;;;;5038057;28;20303;-87
2022/07/24 12:42:17;;;;;;;10.60;10.30;;;36.20;99.90;;;;;;5037970;28;20239;-87
2022/07/24 12:44:46;;;;;;;10.57;10.27;;;36.70;99.90;;;;;;5039632;28;20243;-86
2022/07/24 12:47:16;;;;;;;10.63;10.32;;;37.10;99.90;;;;;;5038702;28;20227;-87
2022/07/24 12:50:02;;;;;;;10.35;10.05;;;37.20;99.90;;;;;;5039761;28;20235;-88
2022/07/24 12:52:31;;;;;;;10.32;10.02;;;37.30;99.90;;;;;;5038692;28;20227;-86
2022/07/24 12:54:59;;;;;;;10.48;10.18;;;37.50;99.90;;;;;;5039206;28;20231;-86
2022/07/24 12:57:30;;;;;;;10.52;10.23;;;37.40;99.90;;;;;;5041463;28;20314;-85
2022/07/24 13:00:06;;;;;;;10.55;10.25;;;37.20;99.90;;;;;;5039054;28;20291;-86
2022/07/24 13:02:45;;;;;;;10.55;10.25;;;37.50;99.90;;;;;;5045539;28;20300;-84
2022/07/24 13:05:14;;;;;;;10.50;10.20;;;37.90;99.90;;;;;;5061423;28;20234;-85
2022/07/24 13:07:43;;;;;;;10.45;10.15;;;38.30;99.90;;;;;;5053653;28;20277;-85
2022/07/24 13:10:13;;;;;;;10.35;10.05;;;38.30;99.90;;;;;;5061513;28;20231;-86
2022/07/24 13:12:42;;;;;;;10.50;10.20;;;38.40;99.90;;;;;;5061108;28;20226;-85
2022/07/24 13:15:15;;;;;;;10.38;10.07;;;38.50;99.90;;;;;;5059004;28;20231;-85
2022/07/24 13:17:46;;;;;;;10.35;10.05;;;38.50;99.90;;;;;;5057494;28;20238;-87
2022/07/24 13:20:14;;;;;;;10.20;9.90;;;38.50;99.90;;;;;;5039405;28;20313;-88
2022/07/24 13:22:44;;;;;;;10.60;10.30;;;38.60;99.90;;;;;;5054380;28;20234;-87
2022/07/24 13:25:12;;;;;;;10.40;10.10;;;38.50;99.90;;;;;;5043231;28;20242;-85
2022/07/24 13:27:42;;;;;;;10.13;9.82;;;38.40;99.90;;;;;;5042326;28;20235;-83
2022/07/24 13:30:12;;;;;;;10.18;9.88;;;38.30;99.90;;;;;;5058080;28;20216;-83
2022/07/24 13:33:04;;;;;;;10.48;10.18;;;38.20;99.90;;;;;;5057248;28;20232;-86
2022/07/24 13:35:41;;;;;;;10.23;9.93;;;38.00;99.90;;;;;;5045626;28;20232;-85
2022/07/24 13:38:16;;;;;;;10.25;9.95;;;38.10;99.90;;;;;;5051959;28;20227;-89
2022/07/24 13:46:35;;;;;;;10.60;10.30;;;36.80;99.90;;;;;;5065301;28;20287;-84
2022/07/24 13:49:14;;;;;;;10.48;10.18;;;36.20;99.90;;;;;;5072363;28;20238;-84
2022/07/24 13:51:43;;;;;;;10.52;10.23;;;36.10;99.90;;;;;;5070723;28;20290;-84
2022/07/24 13:54:13;;;;;;;10.45;10.15;;;35.90;99.90;;;;;;5068084;28;20231;-83
2022/07/24 13:56:43;;;;;;;10.50;10.20;;;35.90;99.90;;;;;;5068607;28;20226;-84
2022/07/24 13:59:11;;;;;;;10.60;10.30;;;36.10;99.90;;;;;;5069756;28;20227;-83
2022/07/24 14:01:40;;;;;;;10.55;10.25;;;36.30;99.90;;;;;;5068304;28;20230;-84
2022/07/24 14:04:20;;;;;;;10.80;10.50;;;36.60;99.90;;;;;;5069072;28;20281;-82
2022/07/24 14:06:49;;;;;;;10.50;10.20;;;36.80;99.90;;;;;;5069575;28;20245;-83
2022/07/24 14:09:18;;;;;;;10.35;10.05;;;37.00;99.90;;;;;;5069346;28;20322;-83
2022/07/24 14:11:48;;;;;;;10.55;10.25;;;37.00;99.90;;;;;;5068605;28;20231;-83
2022/07/24 14:14:16;;;;;;;10.38;10.07;;;37.30;99.90;;;;;;5068820;28;20234;-84
2022/07/24 14:16:46;;;;;;;10.43;10.13;;;37.50;99.90;;;;;;5068678;28;20243;-83
2022/07/24 14:19:25;;;;;;;10.60;10.30;;;37.70;99.90;;;;;;5070245;28;20234;-84
2022/07/24 14:21:53;;;;;;;10.70;10.40;;;37.90;99.90;;;;;;5070077;28;20214;-84
2022/07/24 14:24:23;;;;;;;10.90;10.60;;;38.20;99.90;;;;;;5072376;28;20231;-82
2022/07/24 14:26:52;;;;;;;10.70;10.40;;;37.90;99.90;;;;;;5076420;28;20250;-84
2022/07/24 14:29:22;;;;;;;10.63;10.32;;;37.40;99.90;;;;;;5077106;28;20257;-84
2022/07/24 14:31:51;;;;;;;10.63;10.32;;;36.80;99.90;;;;;;5077377;28;20211;-83
2022/07/24 14:34:30;;;;;;;10.60;10.30;;;36.20;99.90;;;;;;5076855;28;20230;-82
2022/07/24 14:37:00;;;;;;;10.88;10.57;;;35.70;99.90;;;;;;5078655;28;20231;-83
2022/07/24 14:39:33;;;;;;;10.93;10.63;;;35.20;99.90;;;;;;5075829;28;20238;-83
2022/07/24 14:42:01;;;;;;;10.95;10.65;;;34.80;99.90;;;;;;5076519;28;20269;-83
2022/07/24 14:44:28;;;;;;;10.75;10.45;;;34.60;99.90;;;;;;5075295;28;20239;-84
2022/07/24 14:47:06;;;;;;;10.70;10.40;;;34.60;99.90;;;;;;5075487;28;20227;-84